Time;durP1;ratioP1;P1;durP2;ratioP2;P2;SDS_P1;SDS_P2;PMS_P1;PMS_P2;Temp;Humidity;BMP_temperature;BMP_pressure;BME280_temperature;BME280_humidity;BME280_pressure;Samples;Min_cycle;Max_cycle;Signal;HPM_P1;HPM_P2
2022/03/02 00:02:02;;;;;;;20.58;12.48;;;;;;;;;;5073256;28;20029;-89
2022/03/02 00:04:28;;;;;;;21.65;11.77;;;;;;;;;;5071647;28;20016;-89
2022/03/02 00:06:53;;;;;;;21.55;12.43;;;;;;;;;;5069808;28;20032;-90
2022/03/02 00:09:19;;;;;;;20.08;12.52;;;;;;;;;;5070381;28;20078;-89
2022/03/02 00:11:45;;;;;;;22.52;12.82;;;;;;;;;;5071737;28;20566;-87
2022/03/02 00:14:11;;;;;;;21.90;13.13;;;;;;;;;;5069414;28;20052;-89
2022/03/02 00:16:36;;;;;;;22.65;12.98;;;;;;;;;;5071528;28;20033;-90
2022/03/02 00:19:03;;;;;;;20.77;11.50;;;;;;;;;;5088931;28;20047;-87
2022/03/02 00:21:28;;;;;;;22.40;12.07;;;;;;;;;;5075755;28;20064;-90
2022/03/02 00:23:54;;;;;;;22.27;11.85;;;;;;;;;;5068810;28;20051;-89
2022/03/02 00:26:20;;;;;;;23.65;12.30;;;;;;;;;;5075804;28;20060;-91
2022/03/02 00:28:46;;;;;;;21.75;12.15;;;;;;;;;;5071957;28;20024;-89
2022/03/02 00:31:12;;;;;;;21.77;12.40;;;;;;;;;;5071952;28;20040;-90
2022/03/02 00:33:38;;;;;;;20.55;11.95;;;;;;;;;;5065466;28;20055;-88
2022/03/02 00:36:05;;;;;;;20.50;12.30;;;;;;;;;;5065881;28;20118;-89
2022/03/02 00:38:30;;;;;;;20.23;11.85;;;;;;;;;;5067993;28;20099;-89
2022/03/02 00:40:56;;;;;;;18.42;11.48;;;;;;;;;;5075075;28;20032;-89
2022/03/02 00:43:22;;;;;;;20.38;12.02;;;;;;;;;;5071253;28;20029;-87
2022/03/02 00:45:47;;;;;;;22.35;12.43;;;;;;;;;;5071224;28;20040;-90
2022/03/02 00:48:13;;;;;;;20.85;12.15;;;;;;;;;;5069862;28;20055;-90
2022/03/02 00:50:39;;;;;;;23.02;12.98;;;;;;;;;;5074048;28;20046;-89
2022/03/02 00:53:08;;;;;;;23.05;12.32;;;;;;;;;;5071805;28;20020;-86
2022/03/02 00:55:35;;;;;;;22.75;12.50;;;;;;;;;;5079704;28;20067;-89
2022/03/02 00:58:02;;;;;;;21.65;12.45;;;;;;;;;;5072505;28;20020;-89
2022/03/02 01:00:30;;;;;;;22.10;12.82;;;;;;;;;;5071963;28;20032;-88
2022/03/02 01:02:55;;;;;;;19.23;12.07;;;;;;;;;;5072990;28;20025;-89
2022/03/02 01:05:24;;;;;;;20.33;11.75;;;;;;;;;;5069604;28;20477;-89
2022/03/02 01:07:50;;;;;;;21.42;11.68;;;;;;;;;;5068213;28;20029;-90
2022/03/02 01:10:16;;;;;;;22.55;12.27;;;;;;;;;;5065791;28;20027;-88
2022/03/02 01:12:42;;;;;;;20.70;12.20;;;;;;;;;;5073503;28;20024;-87
2022/03/02 01:15:09;;;;;;;21.15;11.82;;;;;;;;;;5068019;28;20053;-90
2022/03/02 01:17:34;;;;;;;20.73;11.85;;;;;;;;;;5066756;28;20435;-89
2022/03/02 01:20:00;;;;;;;19.23;11.35;;;;;;;;;;5073552;28;20028;-87
2022/03/02 01:22:26;;;;;;;20.33;11.73;;;;;;;;;;5070876;28;20039;-86
2022/03/02 01:24:51;;;;;;;18.83;11.38;;;;;;;;;;5070396;28;20036;-87
2022/03/02 01:27:17;;;;;;;20.17;12.43;;;;;;;;;;5066365;28;20025;-90
2022/03/02 01:29:42;;;;;;;19.63;11.90;;;;;;;;;;5068917;28;20028;-91
2022/03/02 01:32:11;;;;;;;23.33;11.80;;;;;;;;;;5070354;28;20070;-87
2022/03/02 01:34:37;;;;;;;19.02;11.85;;;;;;;;;;5068065;28;20028;-87
2022/03/02 01:37:03;;;;;;;20.65;12.25;;;;;;;;;;5071565;28;20032;-90
2022/03/02 01:39:29;;;;;;;21.38;12.32;;;;;;;;;;5073029;28;20095;-90
2022/03/02 01:41:54;;;;;;;19.52;11.93;;;;;;;;;;5066886;28;20021;-88
2022/03/02 01:44:20;;;;;;;20.73;11.60;;;;;;;;;;5087939;28;20137;-88
2022/03/02 01:46:45;;;;;;;21.20;12.60;;;;;;;;;;5073200;28;20389;-87
2022/03/02 01:49:11;;;;;;;21.60;12.85;;;;;;;;;;5068876;28;20493;-89
2022/03/02 01:51:37;;;;;;;22.20;12.68;;;;;;;;;;5072702;28;20021;-89
2022/03/02 01:54:03;;;;;;;19.08;11.45;;;;;;;;;;5069392;28;20548;-90
2022/03/02 01:56:30;;;;;;;21.45;12.60;;;;;;;;;;5077013;28;20330;-90
2022/03/02 01:58:55;;;;;;;21.48;12.50;;;;;;;;;;5066484;28;20071;-90
2022/03/02 02:01:21;;;;;;;21.42;12.75;;;;;;;;;;5067919;28;20021;-89
2022/03/02 02:03:46;;;;;;;19.92;12.43;;;;;;;;;;5066979;28;20082;-89
2022/03/02 02:06:13;;;;;;;25.13;13.38;;;;;;;;;;5070397;28;20019;-88
2022/03/02 02:08:40;;;;;;;25.15;13.15;;;;;;;;;;5068038;28;20106;-88
2022/03/02 02:11:05;;;;;;;22.60;12.95;;;;;;;;;;5068457;28;20123;-90
2022/03/02 02:13:33;;;;;;;21.15;13.35;;;;;;;;;;5072442;28;20055;-89
2022/03/02 02:15:59;;;;;;;21.85;13.10;;;;;;;;;;5071848;28;20038;-87
2022/03/02 02:18:24;;;;;;;22.50;13.00;;;;;;;;;;5065717;28;20025;-89
2022/03/02 02:20:50;;;;;;;22.60;12.95;;;;;;;;;;5064362;28;20107;-90
2022/03/02 02:23:15;;;;;;;22.23;13.20;;;;;;;;;;5069780;28;20055;-87
2022/03/02 02:25:41;;;;;;;25.42;12.30;;;;;;;;;;5067453;28;20031;-91
2022/03/02 02:28:12;;;;;;;22.77;12.73;;;;;;;;;;5066495;28;20444;-87
2022/03/02 02:30:39;;;;;;;26.35;14.70;;;;;;;;;;5072069;28;20031;-90
2022/03/02 02:33:04;;;;;;;22.33;13.77;;;;;;;;;;5065817;28;20119;-89
2022/03/02 02:35:30;;;;;;;25.08;13.98;;;;;;;;;;5069229;28;20111;-87
2022/03/02 02:37:57;;;;;;;23.05;13.18;;;;;;;;;;5071071;28;20138;-90
2022/03/02 02:40:23;;;;;;;25.45;14.23;;;;;;;;;;5067219;28;20024;-87
2022/03/02 02:42:49;;;;;;;24.75;13.45;;;;;;;;;;5068062;28;20059;-87
2022/03/02 02:45:20;;;;;;;22.95;13.52;;;;;;;;;;5063507;28;20016;-90
2022/03/02 02:47:46;;;;;;;23.25;14.23;;;;;;;;;;5067888;28;20449;-90
2022/03/02 02:50:34;;;;;;;24.27;13.40;;;;;;;;;;5090598;28;20036;-87
2022/03/02 02:53:08;;;;;;;25.02;14.32;;;;;;;;;;5068526;28;20044;-90
2022/03/02 02:55:35;;;;;;;24.83;14.13;;;;;;;;;;5079452;28;20025;-89
2022/03/02 02:58:00;;;;;;;23.92;13.93;;;;;;;;;;5085850;28;20028;-90
2022/03/02 03:00:34;;;;;;;22.85;14.07;;;;;;;;;;5076580;28;20438;-88
2022/03/02 03:03:00;;;;;;;24.17;13.80;;;;;;;;;;5078204;28;20024;-90
2022/03/02 03:05:29;;;;;;;24.35;13.75;;;;;;;;;;5072791;28;20017;-89
2022/03/02 03:07:54;;;;;;;23.25;14.05;;;;;;;;;;5069263;28;20475;-89
2022/03/02 03:10:20;;;;;;;24.10;13.65;;;;;;;;;;5070433;28;20068;-90
2022/03/02 03:12:47;;;;;;;23.17;13.57;;;;;;;;;;5071154;28;20499;-87
2022/03/02 03:15:15;;;;;;;21.52;13.65;;;;;;;;;;5087269;28;20553;-90
2022/03/02 03:17:42;;;;;;;28.23;14.27;;;;;;;;;;5075252;28;20025;-90
2022/03/02 03:20:10;;;;;;;23.25;13.48;;;;;;;;;;5074786;28;20109;-86
2022/03/02 03:22:36;;;;;;;21.23;13.07;;;;;;;;;;5072403;28;20170;-88
2022/03/02 03:25:03;;;;;;;22.67;14.18;;;;;;;;;;5070848;28;20461;-87
2022/03/02 03:27:29;;;;;;;21.67;13.77;;;;;;;;;;5076095;28;20077;-89
2022/03/02 03:29:54;;;;;;;23.17;13.82;;;;;;;;;;5066283;28;20020;-91
2022/03/02 03:32:19;;;;;;;21.52;13.35;;;;;;;;;;5076339;28;20553;-88
2022/03/02 03:34:46;;;;;;;22.70;13.10;;;;;;;;;;5071523;28;20111;-90
2022/03/02 03:37:11;;;;;;;21.73;13.32;;;;;;;;;;5069718;28;20029;-88
2022/03/02 03:39:37;;;;;;;19.20;13.00;;;;;;;;;;5068946;28;20044;-88
2022/03/02 03:42:03;;;;;;;22.95;13.10;;;;;;;;;;5072862;28;20032;-91
2022/03/02 03:44:28;;;;;;;21.38;13.95;;;;;;;;;;5065543;28;20070;-89
2022/03/02 03:46:53;;;;;;;22.90;14.07;;;;;;;;;;5072407;28;20250;-90
2022/03/02 03:49:19;;;;;;;21.30;12.77;;;;;;;;;;5077836;28;20077;-90
2022/03/02 03:51:44;;;;;;;24.95;13.95;;;;;;;;;;5074168;28;20052;-87
2022/03/02 03:54:10;;;;;;;21.98;13.98;;;;;;;;;;5077003;28;20480;-88
2022/03/02 03:56:36;;;;;;;25.05;13.73;;;;;;;;;;5074616;28;20024;-90
2022/03/02 03:59:02;;;;;;;24.02;13.90;;;;;;;;;;5085790;28;20124;-88
2022/03/02 04:01:27;;;;;;;23.17;13.68;;;;;;;;;;5055430;28;20046;-91
2022/03/02 04:03:53;;;;;;;22.13;13.48;;;;;;;;;;5078062;28;20032;-88
2022/03/02 04:06:19;;;;;;;26.00;14.32;;;;;;;;;;5070508;28;20024;-90
2022/03/02 04:08:45;;;;;;;22.98;14.48;;;;;;;;;;5072436;28;20115;-90
2022/03/02 04:11:10;;;;;;;23.10;14.35;;;;;;;;;;5092396;28;20024;-89
2022/03/02 04:13:36;;;;;;;24.55;14.55;;;;;;;;;;5074097;28;20424;-87
2022/03/02 04:16:02;;;;;;;23.85;14.48;;;;;;;;;;5084107;28;20028;-90
2022/03/02 04:18:28;;;;;;;25.08;14.43;;;;;;;;;;5068672;28;20051;-88
2022/03/02 04:20:54;;;;;;;22.05;13.77;;;;;;;;;;5074188;28;20040;-88
2022/03/02 04:23:21;;;;;;;25.88;14.65;;;;;;;;;;5075978;28;20503;-89
2022/03/02 04:25:48;;;;;;;25.85;14.55;;;;;;;;;;5077149;28;20051;-88
2022/03/02 04:28:13;;;;;;;23.85;14.68;;;;;;;;;;5072068;28;20071;-90
2022/03/02 04:30:39;;;;;;;24.92;15.25;;;;;;;;;;5066526;28;20478;-87
2022/03/02 04:33:05;;;;;;;27.83;15.40;;;;;;;;;;5088270;28;20419;-90
2022/03/02 04:35:31;;;;;;;26.73;15.13;;;;;;;;;;5071575;28;20065;-89
2022/03/02 04:37:57;;;;;;;27.20;14.63;;;;;;;;;;5067661;28;20032;-91
2022/03/02 04:40:23;;;;;;;26.25;15.35;;;;;;;;;;5070956;28;20027;-87
2022/03/02 04:42:48;;;;;;;24.77;14.88;;;;;;;;;;5068359;28;20041;-89
2022/03/02 04:45:13;;;;;;;23.90;14.55;;;;;;;;;;5064805;28;20024;-90
2022/03/02 04:47:39;;;;;;;25.00;15.13;;;;;;;;;;5076078;28;20020;-88
2022/03/02 04:50:06;;;;;;;25.45;14.35;;;;;;;;;;5071523;28;20079;-88
2022/03/02 04:52:32;;;;;;;25.08;14.63;;;;;;;;;;5062825;28;20115;-88
2022/03/02 04:55:06;;;;;;;22.02;13.77;;;;;;;;;;5076613;28;20103;-90
2022/03/02 04:57:46;;;;;;;25.42;14.10;;;;;;;;;;5077658;28;20116;-88
2022/03/02 05:00:41;;;;;;;24.02;15.10;;;;;;;;;;5060100;28;20032;-90
2022/03/02 05:03:06;;;;;;;24.55;14.57;;;;;;;;;;5056565;28;20466;-90
2022/03/02 05:05:36;;;;;;;24.50;14.88;;;;;;;;;;5080252;28;20016;-90
2022/03/02 05:08:03;;;;;;;23.60;13.52;;;;;;;;;;5071894;28;20107;-88
2022/03/02 05:10:29;;;;;;;25.33;14.50;;;;;;;;;;5074221;28;20069;-87
2022/03/02 05:12:58;;;;;;;28.35;14.77;;;;;;;;;;5061744;28;20055;-90
2022/03/02 05:15:24;;;;;;;25.23;14.95;;;;;;;;;;5088177;28;20115;-87
2022/03/02 05:17:50;;;;;;;27.08;15.60;;;;;;;;;;5072673;28;20165;-90
2022/03/02 05:20:17;;;;;;;25.98;15.50;;;;;;;;;;5070102;28;20040;-89
2022/03/02 05:22:43;;;;;;;24.98;16.40;;;;;;;;;;5074891;28;20457;-86
2022/03/02 05:25:10;;;;;;;24.33;15.60;;;;;;;;;;5068624;28;20024;-89
2022/03/02 05:27:36;;;;;;;26.35;16.65;;;;;;;;;;5076435;28;20048;-90
2022/03/02 05:30:03;;;;;;;26.05;16.10;;;;;;;;;;5069006;28;20094;-88
2022/03/02 05:32:28;;;;;;;25.92;16.10;;;;;;;;;;5073758;28;20119;-90
2022/03/02 05:34:53;;;;;;;27.45;16.50;;;;;;;;;;5068332;28;20103;-90
2022/03/02 05:37:19;;;;;;;27.17;15.93;;;;;;;;;;5072514;28;20020;-90
2022/03/02 05:39:44;;;;;;;26.73;16.10;;;;;;;;;;5069726;28;20028;-91
2022/03/02 05:42:10;;;;;;;26.88;16.25;;;;;;;;;;5067774;28;20089;-90
2022/03/02 05:44:35;;;;;;;26.90;15.25;;;;;;;;;;5069399;28;20079;-89
2022/03/02 05:47:01;;;;;;;28.02;16.30;;;;;;;;;;5069903;28;20040;-90
2022/03/02 05:49:26;;;;;;;24.77;15.52;;;;;;;;;;5073114;28;20020;-90
2022/03/02 05:51:52;;;;;;;23.88;15.15;;;;;;;;;;5074190;28;20074;-90
2022/03/02 05:54:18;;;;;;;24.10;15.10;;;;;;;;;;5082905;28;20094;-87
2022/03/02 05:56:44;;;;;;;23.42;14.88;;;;;;;;;;5069378;28;20024;-89
2022/03/02 05:59:12;;;;;;;25.65;14.70;;;;;;;;;;5068922;28;22763;-90
2022/03/02 06:01:38;;;;;;;25.55;16.13;;;;;;;;;;5067158;28;20063;-89
2022/03/02 06:04:05;;;;;;;27.25;16.75;;;;;;;;;;5089263;28;20068;-89
2022/03/02 06:06:32;;;;;;;26.02;15.93;;;;;;;;;;5064391;28;20493;-89
2022/03/02 06:08:59;;;;;;;27.60;15.30;;;;;;;;;;5066007;28;20025;-87
2022/03/02 06:11:27;;;;;;;26.40;15.13;;;;;;;;;;5072834;28;20039;-87
2022/03/02 06:13:54;;;;;;;24.95;15.20;;;;;;;;;;5068103;28;20066;-90
2022/03/02 06:16:20;;;;;;;24.33;15.15;;;;;;;;;;5074504;28;20488;-89
2022/03/02 06:18:45;;;;;;;25.77;15.75;;;;;;;;;;5068464;28;20044;-91
2022/03/02 06:21:46;;;;;;;25.35;15.07;;;;;;;;;;5076735;28;20047;-91
2022/03/02 06:24:14;;;;;;;27.92;15.68;;;;;;;;;;5036063;28;20033;-92
2022/03/02 06:26:40;;;;;;;26.13;15.75;;;;;;;;;;5073155;28;20032;-88
2022/03/02 06:29:05;;;;;;;26.67;15.18;;;;;;;;;;5070470;28;20032;-88
2022/03/02 06:31:31;;;;;;;27.38;15.20;;;;;;;;;;5072268;28;20032;-88
2022/03/02 06:33:57;;;;;;;28.55;15.73;;;;;;;;;;5080216;28;20610;-90
2022/03/02 06:36:22;;;;;;;25.02;14.45;;;;;;;;;;5067196;28;20111;-88
2022/03/02 06:38:47;;;;;;;24.73;14.85;;;;;;;;;;5080888;28;20614;-88
2022/03/02 06:41:24;;;;;;;25.27;14.68;;;;;;;;;;5067511;28;20078;-90
2022/03/02 06:44:19;;;;;;;25.15;15.13;;;;;;;;;;5068159;28;20365;-90
2022/03/02 06:47:00;;;;;;;25.13;14.00;;;;;;;;;;5069637;28;20461;-91
2022/03/02 06:49:45;;;;;;;22.00;13.95;;;;;;;;;;5070201;28;20078;-90
2022/03/02 06:52:12;;;;;;;20.88;13.77;;;;;;;;;;5079133;28;20020;-90
2022/03/02 06:54:42;;;;;;;23.00;14.02;;;;;;;;;;5073980;28;20043;-88
2022/03/02 06:57:10;;;;;;;29.08;13.65;;;;;;;;;;5083124;28;20028;-91
2022/03/02 06:59:38;;;;;;;24.45;14.68;;;;;;;;;;5071460;28;20038;-88
2022/03/02 07:02:05;;;;;;;25.98;14.55;;;;;;;;;;5071653;28;20029;-88
2022/03/02 07:04:34;;;;;;;22.75;14.15;;;;;;;;;;5070839;28;20024;-91
2022/03/02 07:07:02;;;;;;;28.83;16.00;;;;;;;;;;5069763;28;20366;-91
2022/03/02 07:09:29;;;;;;;27.48;16.10;;;;;;;;;;5070348;28;20150;-87
2022/03/02 07:11:54;;;;;;;24.52;15.70;;;;;;;;;;5079449;28;20495;-86
2022/03/02 07:14:20;;;;;;;25.20;15.02;;;;;;;;;;5073555;28;20110;-86
2022/03/02 07:16:45;;;;;;;26.58;16.38;;;;;;;;;;5065525;28;20028;-88
2022/03/02 07:19:11;;;;;;;30.67;17.23;;;;;;;;;;5073574;28;20020;-91
2022/03/02 07:21:39;;;;;;;26.35;16.02;;;;;;;;;;5069935;28;20024;-91
2022/03/02 07:24:07;;;;;;;26.88;16.33;;;;;;;;;;5064655;28;20021;-88
2022/03/02 07:26:34;;;;;;;32.83;16.15;;;;;;;;;;5067481;28;20436;-90
2022/03/02 07:29:00;;;;;;;27.48;16.17;;;;;;;;;;5072662;28;20059;-90
2022/03/02 07:31:26;;;;;;;26.38;16.23;;;;;;;;;;5070004;28;20020;-88
2022/03/02 07:33:53;;;;;;;27.92;15.93;;;;;;;;;;5069835;28;20029;-90
2022/03/02 07:36:20;;;;;;;25.75;16.27;;;;;;;;;;5064226;28;20448;-90
2022/03/02 07:38:54;;;;;;;26.05;15.60;;;;;;;;;;5072451;28;20088;-90
2022/03/02 07:41:19;;;;;;;24.63;14.25;;;;;;;;;;5076841;28;20477;-90
2022/03/02 07:43:46;;;;;;;26.75;15.55;;;;;;;;;;5076943;28;20016;-91
2022/03/02 07:46:14;;;;;;;22.75;14.77;;;;;;;;;;5075933;28;20032;-87
2022/03/02 07:48:40;;;;;;;24.55;15.52;;;;;;;;;;5077505;28;20354;-88
2022/03/02 07:51:07;;;;;;;29.30;16.33;;;;;;;;;;5080516;28;20081;-88
2022/03/02 07:53:47;;;;;;;24.02;14.73;;;;;;;;;;5080737;28;20020;-87
2022/03/02 07:56:15;;;;;;;23.05;13.55;;;;;;;;;;5082012;28;20031;-90
2022/03/02 07:58:41;;;;;;;26.05;14.10;;;;;;;;;;5077599;28;20053;-86
2022/03/02 08:01:08;;;;;;;25.67;13.88;;;;;;;;;;5066824;28;20058;-91
2022/03/02 08:03:38;;;;;;;22.67;14.10;;;;;;;;;;5065204;28;20033;-90
2022/03/02 08:06:31;;;;;;;24.63;13.38;;;;;;;;;;5067545;28;20048;-89
2022/03/02 08:08:56;;;;;;;23.27;13.25;;;;;;;;;;5083913;28;20021;-88
2022/03/02 08:11:22;;;;;;;21.77;14.05;;;;;;;;;;5070574;28;20086;-86
2022/03/02 08:13:47;;;;;;;25.23;13.63;;;;;;;;;;5075869;28;20076;-86
2022/03/02 08:16:15;;;;;;;22.30;13.10;;;;;;;;;;5068456;28;20085;-90
2022/03/02 08:18:40;;;;;;;22.67;12.88;;;;;;;;;;5072686;28;20126;-90
2022/03/02 08:21:07;;;;;;;21.27;12.32;;;;;;;;;;5077382;28;20025;-88
2022/03/02 08:23:44;;;;;;;21.65;11.80;;;;;;;;;;5073207;28;20480;-90
2022/03/02 08:26:11;;;;;;;24.98;13.48;;;;;;;;;;5083084;28;20031;-88
2022/03/02 08:28:40;;;;;;;21.77;13.45;;;;;;;;;;5082926;28;20032;-90
2022/03/02 08:31:06;;;;;;;20.15;11.80;;;;;;;;;;5072442;28;20036;-91
2022/03/02 08:33:35;;;;;;;19.80;12.05;;;;;;;;;;5078579;28;20017;-88
2022/03/02 08:36:01;;;;;;;21.70;11.77;;;;;;;;;;5083131;28;20016;-89
2022/03/02 08:38:30;;;;;;;20.05;11.93;;;;;;;;;;5075004;28;20021;-87
2022/03/02 08:41:00;;;;;;;19.58;11.45;;;;;;;;;;5081914;28;20028;-90
2022/03/02 08:43:25;;;;;;;21.17;12.43;;;;;;;;;;5071283;28;20077;-86
2022/03/02 08:45:52;;;;;;;20.17;12.00;;;;;;;;;;5080026;28;20016;-91
2022/03/02 08:48:19;;;;;;;16.80;10.45;;;;;;;;;;5074089;28;20029;-90
2022/03/02 08:51:01;;;;;;;20.30;11.32;;;;;;;;;;5077303;28;20027;-87
2022/03/02 08:53:34;;;;;;;20.15;11.95;;;;;;;;;;5072744;28;20036;-91
2022/03/02 08:56:03;;;;;;;18.75;11.15;;;;;;;;;;5072219;28;20024;-85
2022/03/02 08:58:30;;;;;;;20.38;11.80;;;;;;;;;;5080425;28;20029;-88
2022/03/02 09:01:04;;;;;;;18.38;10.85;;;;;;;;;;5072789;28;20038;-90
2022/03/02 09:03:34;;;;;;;22.08;11.52;;;;;;;;;;5065277;28;20020;-90
2022/03/02 09:06:06;;;;;;;22.63;11.50;;;;;;;;;;5072989;28;20033;-85
2022/03/02 09:08:33;;;;;;;21.75;11.85;;;;;;;;;;5084204;28;20024;-87
2022/03/02 09:11:00;;;;;;;18.67;10.93;;;;;;;;;;5074247;28;20020;-87
2022/03/02 09:13:25;;;;;;;26.05;12.13;;;;;;;;;;5069541;28;20025;-90
2022/03/02 09:15:51;;;;;;;16.77;10.45;;;;;;;;;;5071547;28;20082;-88
2022/03/02 09:18:17;;;;;;;16.92;11.02;;;;;;;;;;5071448;28;20369;-86
2022/03/02 09:20:43;;;;;;;20.58;11.18;;;;;;;;;;5071799;28;20028;-87
2022/03/02 09:23:10;;;;;;;17.52;10.82;;;;;;;;;;5076345;28;20028;-89
2022/03/02 09:25:41;;;;;;;20.20;10.85;;;;;;;;;;5071527;28;20028;-90
2022/03/02 09:28:09;;;;;;;20.92;10.27;;;;;;;;;;5091300;28;20109;-89
2022/03/02 09:30:36;;;;;;;17.60;10.85;;;;;;;;;;5079011;28;20028;-88
2022/03/02 09:33:02;;;;;;;19.58;11.48;;;;;;;;;;5071433;28;20024;-90
2022/03/02 09:35:32;;;;;;;17.88;10.98;;;;;;;;;;5078796;28;20036;-90
2022/03/02 09:37:58;;;;;;;17.98;10.90;;;;;;;;;;5070834;28;20028;-91
2022/03/02 09:40:29;;;;;;;16.83;10.23;;;;;;;;;;5074771;28;20025;-91
2022/03/02 09:43:03;;;;;;;19.38;11.48;;;;;;;;;;5073368;28;20028;-91
2022/03/02 09:45:31;;;;;;;23.17;12.30;;;;;;;;;;5084249;28;20078;-90
2022/03/02 09:48:03;;;;;;;19.13;11.27;;;;;;;;;;5071312;28;20484;-89
2022/03/02 09:50:33;;;;;;;18.95;10.93;;;;;;;;;;5077480;28;20055;-88
2022/03/02 09:53:02;;;;;;;19.08;12.15;;;;;;;;;;5075685;28;20555;-90
2022/03/02 09:55:27;;;;;;;20.65;12.30;;;;;;;;;;5072127;28;20055;-89
2022/03/02 09:57:55;;;;;;;22.90;11.73;;;;;;;;;;5063792;28;20056;-88
2022/03/02 10:00:23;;;;;;;18.00;10.95;;;;;;;;;;5061497;28;20795;-89
2022/03/02 10:02:51;;;;;;;20.40;11.60;;;;;;;;;;5049232;28;20060;-89
2022/03/02 10:05:23;;;;;;;19.17;11.05;;;;;;;;;;5082708;28;20553;-86
2022/03/02 10:08:03;;;;;;;18.75;10.43;;;;;;;;;;5069863;28;20047;-88
2022/03/02 10:10:36;;;;;;;16.63;10.60;;;;;;;;;;5075576;28;20130;-90
2022/03/02 10:13:04;;;;;;;17.25;10.40;;;;;;;;;;5078351;28;20024;-90
2022/03/02 10:15:31;;;;;;;20.73;11.18;;;;;;;;;;5077006;28;20044;-85
2022/03/02 10:18:00;;;;;;;18.75;10.40;;;;;;;;;;5090817;28;20139;-90
2022/03/02 10:20:49;;;;;;;19.58;10.68;;;;;;;;;;5071241;28;20052;-89
2022/03/02 10:23:35;;;;;;;16.95;10.30;;;;;;;;;;5083425;28;20373;-89
2022/03/02 10:26:34;;;;;;;20.58;10.82;;;;;;;;;;5087352;28;20031;-89
2022/03/02 10:29:04;;;;;;;18.92;10.80;;;;;;;;;;5070598;28;20548;-90
2022/03/02 10:32:12;;;;;;;16.67;10.13;;;;;;;;;;5077687;28;20020;-90
2022/03/02 10:34:54;;;;;;;16.52;10.23;;;;;;;;;;5087618;28;20040;-87
2022/03/02 10:37:20;;;;;;;17.13;10.75;;;;;;;;;;5059684;28;20048;-89
2022/03/02 10:40:05;;;;;;;18.38;10.20;;;;;;;;;;5041697;28;20127;-90
2022/03/02 10:42:57;;;;;;;20.17;10.52;;;;;;;;;;5051175;28;20448;-88
2022/03/02 10:45:26;;;;;;;17.25;10.15;;;;;;;;;;5026560;28;20126;-87
2022/03/02 10:48:51;;;;;;;19.27;11.38;;;;;;;;;;5034792;28;20037;-88
2022/03/02 10:51:25;;;;;;;18.73;10.93;;;;;;;;;;5044291;28;20067;-89
2022/03/02 10:53:52;;;;;;;18.90;10.82;;;;;;;;;;5032294;28;20595;-89
2022/03/02 10:56:20;;;;;;;17.17;10.75;;;;;;;;;;5046337;28;20482;-89
2022/03/02 10:58:53;;;;;;;16.17;10.30;;;;;;;;;;5055940;28;20523;-90
2022/03/02 11:01:19;;;;;;;15.68;9.73;;;;;;;;;;5056413;28;20374;-89
2022/03/02 11:03:45;;;;;;;18.98;10.50;;;;;;;;;;5056834;28;20048;-87
2022/03/02 11:06:11;;;;;;;18.13;10.77;;;;;;;;;;5037185;28;20046;-90
2022/03/02 11:08:38;;;;;;;18.77;10.50;;;;;;;;;;5067565;28;20595;-87
2022/03/02 11:11:06;;;;;;;16.45;9.95;;;;;;;;;;5077017;28;20063;-87
2022/03/02 11:13:32;;;;;;;18.88;10.88;;;;;;;;;;5087731;28;20032;-91
2022/03/02 11:16:00;;;;;;;16.67;9.85;;;;;;;;;;5076554;28;20028;-88
2022/03/02 11:18:38;;;;;;;16.67;9.88;;;;;;;;;;5089271;28;20039;-85
2022/03/02 11:21:09;;;;;;;18.73;9.98;;;;;;;;;;5092591;28;20439;-89
2022/03/02 11:23:44;;;;;;;17.67;10.10;;;;;;;;;;5075994;28;20023;-85
2022/03/02 11:26:12;;;;;;;17.00;10.00;;;;;;;;;;5074418;28;20052;-86
2022/03/02 11:28:38;;;;;;;20.80;10.57;;;;;;;;;;5083146;28;20036;-88
2022/03/02 11:31:07;;;;;;;16.88;9.98;;;;;;;;;;5069757;28;20631;-88
2022/03/02 11:33:58;;;;;;;16.10;9.45;;;;;;;;;;5064304;28;20025;-89
2022/03/02 11:36:32;;;;;;;16.83;10.02;;;;;;;;;;5058527;28;20134;-92
2022/03/02 11:39:01;;;;;;;17.00;9.80;;;;;;;;;;5075036;28;20099;-92
2022/03/02 11:47:24;;;;;;;17.67;10.45;;;;;;;;;;5081335;28;20043;-87
2022/03/02 11:50:01;;;;;;;17.90;11.02;;;;;;;;;;5074757;28;20024;-89
2022/03/02 11:52:33;;;;;;;17.52;11.18;;;;;;;;;;5068153;28;20024;-89
2022/03/02 11:55:10;;;;;;;18.08;10.93;;;;;;;;;;5070996;28;20036;-85
2022/03/02 11:57:43;;;;;;;17.67;11.00;;;;;;;;;;5067665;28;20048;-89
2022/03/02 12:00:30;;;;;;;17.23;10.93;;;;;;;;;;5067877;28;20037;-86
2022/03/02 12:03:08;;;;;;;17.95;10.75;;;;;;;;;;5064611;28;20025;-86
2022/03/02 12:05:34;;;;;;;16.98;10.70;;;;;;;;;;5066896;28;20109;-89
2022/03/02 12:08:10;;;;;;;18.70;10.15;;;;;;;;;;5066868;28;20127;-89
2022/03/02 12:10:40;;;;;;;16.77;10.55;;;;;;;;;;5072481;28;20162;-86
2022/03/02 12:13:06;;;;;;;19.02;10.90;;;;;;;;;;5072520;28;20036;-90
2022/03/02 12:15:52;;;;;;;17.67;10.68;;;;;;;;;;5083324;28;20075;-90
2022/03/02 12:18:20;;;;;;;17.73;10.63;;;;;;;;;;5066412;28;20032;-85
2022/03/02 12:20:53;;;;;;;16.73;10.30;;;;;;;;;;5070573;28;20031;-87
2022/03/02 12:23:23;;;;;;;17.67;9.82;;;;;;;;;;5082643;28;20028;-90
2022/03/02 12:25:49;;;;;;;18.05;10.77;;;;;;;;;;5070014;28;20040;-87
2022/03/02 12:28:16;;;;;;;14.30;9.90;;;;;;;;;;5052059;28;20383;-85
2022/03/02 12:30:42;;;;;;;15.65;9.68;;;;;;;;;;5070750;28;20419;-91
2022/03/02 12:33:08;;;;;;;15.20;9.63;;;;;;;;;;5080890;28;20081;-88
2022/03/02 12:35:39;;;;;;;13.63;8.98;;;;;;;;;;5075798;28;20074;-90
2022/03/02 12:38:12;;;;;;;16.80;9.90;;;;;;;;;;5073929;28;20032;-90
2022/03/02 12:40:41;;;;;;;17.13;9.77;;;;;;;;;;5064225;28;20054;-88
2022/03/02 12:43:23;;;;;;;14.13;9.20;;;;;;;;;;5067476;28;20134;-90
2022/03/02 12:45:49;;;;;;;16.50;9.52;;;;;;;;;;5073324;28;20043;-88
2022/03/02 12:48:20;;;;;;;15.55;9.32;;;;;;;;;;5069703;28;20131;-88
2022/03/02 12:50:50;;;;;;;14.35;8.98;;;;;;;;;;5063399;28;20032;-89
2022/03/02 12:53:16;;;;;;;14.07;9.48;;;;;;;;;;5070795;28;20028;-88
2022/03/02 12:55:42;;;;;;;12.60;8.55;;;;;;;;;;5064964;28;20115;-90
2022/03/02 12:58:11;;;;;;;14.43;9.15;;;;;;;;;;5075412;28;20032;-88
2022/03/02 13:00:38;;;;;;;14.57;9.32;;;;;;;;;;5068799;28;20362;-90
2022/03/02 13:03:07;;;;;;;17.27;9.15;;;;;;;;;;5068927;28;20037;-90
2022/03/02 13:05:48;;;;;;;13.25;8.60;;;;;;;;;;5066166;28;20108;-88
2022/03/02 13:08:36;;;;;;;14.52;8.38;;;;;;;;;;5066248;28;20071;-90
2022/03/02 13:11:01;;;;;;;13.05;8.38;;;;;;;;;;5078682;28;20021;-85
2022/03/02 13:13:46;;;;;;;12.52;7.95;;;;;;;;;;5064717;28;20040;-89
2022/03/02 13:16:24;;;;;;;12.93;8.05;;;;;;;;;;5085780;28;20139;-90
2022/03/02 13:18:52;;;;;;;13.50;7.78;;;;;;;;;;5062843;28;20028;-89
2022/03/02 13:21:21;;;;;;;13.32;8.32;;;;;;;;;;5067361;28;20480;-85
2022/03/02 13:24:10;;;;;;;14.02;8.70;;;;;;;;;;5066646;28;20032;-86
2022/03/02 13:27:00;;;;;;;16.25;8.82;;;;;;;;;;5064270;28;20028;-87
2022/03/02 13:29:28;;;;;;;12.98;8.10;;;;;;;;;;5066150;28;20135;-90
2022/03/02 13:32:09;;;;;;;13.57;8.30;;;;;;;;;;5067087;28;20055;-90
2022/03/02 13:35:00;;;;;;;17.80;10.40;;;;;;;;;;5064452;28;20028;-87
2022/03/02 13:38:03;;;;;;;15.73;9.85;;;;;;;;;;5073919;28;20027;-87
2022/03/02 13:40:37;;;;;;;16.10;9.45;;;;;;;;;;5065556;28;20276;-88
2022/03/02 13:43:05;;;;;;;15.10;9.00;;;;;;;;;;5064219;28;20132;-86
2022/03/02 13:45:37;;;;;;;16.10;9.20;;;;;;;;;;5082789;28;20017;-86
2022/03/02 13:48:21;;;;;;;14.18;9.25;;;;;;;;;;5066049;28;20029;-90
2022/03/02 13:51:05;;;;;;;16.23;10.60;;;;;;;;;;5073475;28;20024;-89
2022/03/02 13:53:32;;;;;;;17.35;8.88;;;;;;;;;;5069845;28;20028;-88
2022/03/02 13:56:11;;;;;;;15.02;9.25;;;;;;;;;;5069350;28;20040;-88
2022/03/02 13:58:38;;;;;;;14.65;8.75;;;;;;;;;;5073807;28;20020;-88
2022/03/02 14:01:21;;;;;;;17.20;9.55;;;;;;;;;;5079341;28;20106;-89
2022/03/02 14:04:07;;;;;;;14.27;9.25;;;;;;;;;;5069820;28;20028;-89
2022/03/02 14:06:34;;;;;;;14.70;8.93;;;;;;;;;;5060314;28;20078;-88
2022/03/02 14:09:00;;;;;;;14.65;8.68;;;;;;;;;;5077706;28;20024;-86
2022/03/02 14:11:33;;;;;;;16.13;8.90;;;;;;;;;;5081682;28;20024;-89
2022/03/02 14:14:00;;;;;;;13.63;8.45;;;;;;;;;;5075655;28;20047;-91
2022/03/02 14:16:25;;;;;;;17.13;9.27;;;;;;;;;;5062059;28;20116;-85
2022/03/02 14:19:11;;;;;;;17.98;8.77;;;;;;;;;;5065883;28;20112;-90
2022/03/02 14:22:01;;;;;;;17.05;10.00;;;;;;;;;;5072252;28;20024;-89
2022/03/02 14:24:30;;;;;;;17.63;9.60;;;;;;;;;;5068678;28;20027;-89
2022/03/02 14:27:05;;;;;;;17.15;10.07;;;;;;;;;;5068741;28;20028;-90
2022/03/02 14:29:32;;;;;;;19.10;10.82;;;;;;;;;;5072539;28;20032;-88
2022/03/02 14:32:00;;;;;;;16.83;9.73;;;;;;;;;;5073376;28;20487;-87
2022/03/02 14:34:51;;;;;;;15.48;9.45;;;;;;;;;;5069141;28;20456;-90
2022/03/02 14:37:39;;;;;;;18.00;10.23;;;;;;;;;;5074022;28;20039;-87
2022/03/02 14:40:09;;;;;;;17.83;10.63;;;;;;;;;;5069145;28;20033;-89